DHL561 YMAV-ZSSS
Flight info
| Callsign | DHL561 |
|---|---|
| Flight time | N/A |
| Altitude | 30000 |
| Route | ML H164 KEPPA H336 NATYA J19 BHI T25 POLEV/N0504F320 T25 TNK J30 TN J251 DN A461 AMN/N0496F340 R590 COT B472 NANAS/N0493F350 TR4 BCD/N0497F340 TR10 ROX TR16 SAGAM W11 MIA A461 CAB B462 LAO/N0494F350 M646 POTIB Q11 JICHI B591 TITUS Q11 DRAKE L2 BERBA R596 SULEM/K0909S1100 R596 DST/K0913S1070 B221 SUPAR SUP71A |
| Aircraft | B77L/H-SDE1E2E3FGHIJ2J3J4J5M1RWXY/LB1D1 |
Departure
| Time | 2026-04-13 19:53 |
|---|---|
| Airport | Melbourne Avalon International Airport (YMAV) |
Arrival
| Time | N/A |
|---|---|
| Airport | Shanghai Hongqiao International Airport (ZSSS) |
| Time | Latitude | Longitude | Altitude | Speed | Heading |
|---|---|---|---|---|---|
| 2026-04-13 19:38 | -38.02748 | 144.47418 | 31 ft | 0 kts | 9° |
| 2026-04-13 19:43 | -38.02749 | 144.47418 | 31 ft | 1 kts | 9° |
| 2026-04-13 19:43 | -38.02764 | 144.47415 | 31 ft | 3 kts | 357° |
| 2026-04-13 19:44 | -38.02784 | 144.47419 | 29 ft | 3 kts | 339° |
| 2026-04-13 19:44 | -38.02802 | 144.47430 | 30 ft | 3 kts | 328° |
| 2026-04-13 19:44 | -38.02811 | 144.47437 | 29 ft | 1 kts | 327° |
| 2026-04-13 19:46 | -38.02810 | 144.47437 | 31 ft | 1 kts | 327° |
| 2026-04-13 19:47 | -38.02809 | 144.47396 | 31 ft | 8 kts | 247° |
| 2026-04-13 19:47 | -38.02870 | 144.47360 | 31 ft | 15 kts | 191° |
| 2026-04-13 19:47 | -38.03005 | 144.47336 | 31 ft | 21 kts | 190° |
| 2026-04-13 19:47 | -38.03141 | 144.47284 | 31 ft | 21 kts | 211° |
| 2026-04-13 19:48 | -38.03236 | 144.47151 | 31 ft | 21 kts | 232° |
| 2026-04-13 19:48 | -38.03354 | 144.47053 | 31 ft | 21 kts | 195° |
| 2026-04-13 19:48 | -38.03498 | 144.47025 | 31 ft | 21 kts | 187° |
| 2026-04-13 19:48 | -38.03649 | 144.46999 | 31 ft | 23 kts | 188° |
| 2026-04-13 19:49 | -38.03804 | 144.46972 | 31 ft | 22 kts | 187° |
| 2026-04-13 19:49 | -38.03958 | 144.46946 | 29 ft | 22 kts | 187° |
| 2026-04-13 19:49 | -38.04112 | 144.46920 | 31 ft | 22 kts | 188° |
| 2026-04-13 19:49 | -38.04266 | 144.46894 | 31 ft | 22 kts | 187° |
| 2026-04-13 19:50 | -38.04419 | 144.46868 | 31 ft | 22 kts | 187° |
| 2026-04-13 19:50 | -38.04573 | 144.46842 | 31 ft | 22 kts | 187° |
| 2026-04-13 19:50 | -38.04727 | 144.46817 | 31 ft | 22 kts | 188° |
| 2026-04-13 19:50 | -38.04881 | 144.46791 | 32 ft | 22 kts | 187° |
| 2026-04-13 19:51 | -38.05034 | 144.46765 | 31 ft | 22 kts | 187° |
| 2026-04-13 19:51 | -38.05188 | 144.46739 | 31 ft | 22 kts | 187° |
| 2026-04-13 19:51 | -38.05342 | 144.46713 | 31 ft | 22 kts | 192° |
| 2026-04-13 19:51 | -38.05442 | 144.46584 | 31 ft | 22 kts | 266° |
| 2026-04-13 19:52 | -38.05350 | 144.46498 | 32 ft | 19 kts | 4° |
| 2026-04-13 19:52 | -38.05153 | 144.46530 | 32 ft | 52 kts | 7° |
| 2026-04-13 19:52 | -38.04524 | 144.46636 | 31 ft | 129 kts | 7° |
| 2026-04-13 19:52 | -38.03405 | 144.46819 | 39 ft | 192 kts | 9° |
| 2026-04-13 19:53 | -38.02026 | 144.47078 | 405 ft | 204 kts | 4° |
| 2026-04-13 19:53 | -38.00601 | 144.47328 | 1061 ft | 211 kts | 14° |
| 2026-04-13 19:53 | -37.99354 | 144.48351 | 1489 ft | 225 kts | 50° |
| 2026-04-13 19:53 | -37.98412 | 144.49996 | 1870 ft | 242 kts | 52° |
| 2026-04-13 19:54 | -37.97332 | 144.51740 | 2183 ft | 259 kts | 49° |
| 2026-04-13 19:54 | -37.96111 | 144.53522 | 2576 ft | 273 kts | 46° |
| 2026-04-13 19:54 | -37.94809 | 144.55330 | 3202 ft | 281 kts | 45° |
| 2026-04-13 19:54 | -37.93468 | 144.57155 | 3918 ft | 284 kts | 44° |
| 2026-04-13 19:55 | -37.92012 | 144.58846 | 4661 ft | 284 kts | 36° |
| 2026-04-13 19:55 | -37.90445 | 144.60376 | 5407 ft | 285 kts | 34° |
| 2026-04-13 19:55 | -37.88849 | 144.61890 | 6093 ft | 289 kts | 34° |
| 2026-04-13 19:55 | -37.87234 | 144.63429 | 6750 ft | 293 kts | 35° |
| 2026-04-13 19:56 | -37.85605 | 144.64998 | 7393 ft | 296 kts | 35° |
| 2026-04-13 19:56 | -37.83964 | 144.66591 | 8021 ft | 299 kts | 35° |
| 2026-04-13 19:56 | -37.82313 | 144.68203 | 8662 ft | 301 kts | 35° |
| 2026-04-13 19:56 | -37.80646 | 144.69835 | 9298 ft | 305 kts | 35° |
| 2026-04-13 19:57 | -37.78962 | 144.71487 | 9938 ft | 308 kts | 35° |
| 2026-04-13 19:57 | -37.77255 | 144.73163 | 10409 ft | 317 kts | 35° |
| 2026-04-13 19:57 | -37.75455 | 144.74926 | 10563 ft | 338 kts | 35° |
| 2026-04-13 19:57 | -37.73543 | 144.76802 | 10731 ft | 359 kts | 35° |
| 2026-04-13 19:58 | -37.71513 | 144.78790 | 10890 ft | 379 kts | 35° |
| 2026-04-13 19:58 | -37.69331 | 144.80731 | 11095 ft | 388 kts | 23° |
| 2026-04-13 19:58 | -37.66751 | 144.81631 | 11524 ft | 386 kts | 359° |
| 2026-04-13 19:58 | -37.64117 | 144.81248 | 12204 ft | 380 kts | 339° |
| 2026-04-13 19:59 | -37.61719 | 144.79930 | 12936 ft | 374 kts | 323° |
| 2026-04-13 19:59 | -37.59653 | 144.77963 | 13488 ft | 375 kts | 317° |
| 2026-04-13 19:59 | -37.57617 | 144.75868 | 14068 ft | 380 kts | 317° |
| 2026-04-13 19:59 | -37.55570 | 144.73740 | 14712 ft | 382 kts | 317° |
| 2026-04-13 20:00 | -37.53518 | 144.71609 | 15371 ft | 384 kts | 317° |
| 2026-04-13 20:00 | -37.51445 | 144.69469 | 15991 ft | 387 kts | 317° |
| 2026-04-13 20:00 | -37.49350 | 144.67319 | 16593 ft | 390 kts | 317° |
| 2026-04-13 20:00 | -37.47232 | 144.65158 | 17159 ft | 394 kts | 317° |
| 2026-04-13 20:01 | -37.45088 | 144.62978 | 17689 ft | 399 kts | 318° |
| 2026-04-13 20:01 | -37.42918 | 144.60780 | 18258 ft | 402 kts | 318° |
| 2026-04-13 20:01 | -37.40731 | 144.58570 | 18817 ft | 405 kts | 318° |
| 2026-04-13 20:01 | -37.38527 | 144.56347 | 19337 ft | 408 kts | 318° |
| 2026-04-13 20:02 | -37.36306 | 144.54108 | 19853 ft | 411 kts | 318° |
| 2026-04-13 20:02 | -37.34067 | 144.51852 | 20338 ft | 414 kts | 318° |
| 2026-04-13 20:02 | -37.31812 | 144.49581 | 20826 ft | 417 kts | 318° |
| 2026-04-13 20:02 | -37.29539 | 144.47294 | 21315 ft | 420 kts | 318° |
| 2026-04-13 20:03 | -37.27253 | 144.44996 | 21797 ft | 423 kts | 318° |
| 2026-04-13 20:03 | -37.24949 | 144.42682 | 22257 ft | 426 kts | 318° |
| 2026-04-13 20:03 | -37.22625 | 144.40350 | 22713 ft | 429 kts | 318° |
| 2026-04-13 20:03 | -37.20283 | 144.38000 | 23169 ft | 433 kts | 318° |
| 2026-04-13 20:04 | -37.17921 | 144.35634 | 23629 ft | 436 kts | 318° |
| 2026-04-13 20:04 | -37.15542 | 144.33251 | 24020 ft | 439 kts | 318° |
| 2026-04-13 20:04 | -37.13147 | 144.30856 | 24398 ft | 442 kts | 318° |
| 2026-04-13 20:04 | -37.10734 | 144.28444 | 24784 ft | 445 kts | 318° |
| 2026-04-13 20:05 | -37.08304 | 144.26018 | 25157 ft | 448 kts | 318° |
| 2026-04-13 20:05 | -37.05857 | 144.23576 | 25523 ft | 451 kts | 318° |
| 2026-04-13 20:05 | -37.03396 | 144.21122 | 25886 ft | 454 kts | 318° |
| 2026-04-13 20:05 | -37.00915 | 144.18650 | 26248 ft | 457 kts | 318° |
| 2026-04-13 20:06 | -36.98419 | 144.16166 | 26610 ft | 460 kts | 318° |
| 2026-04-13 20:06 | -36.95906 | 144.13667 | 26966 ft | 463 kts | 318° |
| 2026-04-13 20:06 | -36.93378 | 144.11155 | 27316 ft | 466 kts | 318° |
| 2026-04-13 20:06 | -36.90832 | 144.08627 | 27662 ft | 469 kts | 318° |
| 2026-04-13 20:07 | -36.88269 | 144.06085 | 28000 ft | 472 kts | 318° |
| 2026-04-13 20:07 | -36.85693 | 144.03532 | 28320 ft | 474 kts | 318° |
| 2026-04-13 20:07 | -36.83087 | 144.00983 | 28644 ft | 478 kts | 320° |
| 2026-04-13 20:07 | -36.80285 | 143.98699 | 28945 ft | 484 kts | 327° |
| 2026-04-13 20:08 | -36.77281 | 143.96761 | 29255 ft | 489 kts | 332° |
| 2026-04-13 20:08 | -36.74117 | 143.95148 | 29545 ft | 494 kts | 338° |
| 2026-04-13 20:08 | -36.70842 | 143.93799 | 29821 ft | 497 kts | 338° |
| 2026-04-13 20:08 | -36.67550 | 143.92469 | 30073 ft | 500 kts | 339° |
| 2026-04-13 20:09 | -36.64226 | 143.91127 | 30199 ft | 504 kts | 339° |
| 2026-04-13 20:09 | -36.60887 | 143.89772 | 30238 ft | 504 kts | 339° |
| 2026-04-13 20:09 | -36.54258 | 143.87055 | 30253 ft | 499 kts | 338° |
| 2026-04-13 20:10 | -36.47681 | 143.84340 | 30261 ft | 498 kts | 338° |
| 2026-04-13 20:10 | -36.41113 | 143.81625 | 30264 ft | 497 kts | 338° |
| 2026-04-13 20:11 | -36.34541 | 143.78916 | 30264 ft | 498 kts | 338° |
| 2026-04-13 20:11 | -36.27963 | 143.76210 | 30263 ft | 498 kts | 338° |
| 2026-04-13 20:12 | -36.21375 | 143.73507 | 30262 ft | 499 kts | 338° |
| 2026-04-13 20:12 | -36.14777 | 143.70804 | 30258 ft | 500 kts | 339° |
| 2026-04-13 20:13 | -36.08174 | 143.68104 | 30262 ft | 500 kts | 339° |
| 2026-04-13 20:13 | -36.01567 | 143.65408 | 30264 ft | 500 kts | 339° |
| 2026-04-13 20:14 | -35.94960 | 143.62715 | 30266 ft | 500 kts | 339° |
| 2026-04-13 20:14 | -35.88353 | 143.60028 | 30264 ft | 500 kts | 339° |
| 2026-04-13 20:15 | -35.81742 | 143.57343 | 30267 ft | 500 kts | 339° |
| 2026-04-13 20:15 | -35.75133 | 143.54664 | 30269 ft | 500 kts | 339° |
| 2026-04-13 20:16 | -35.68527 | 143.51991 | 30254 ft | 500 kts | 339° |
| 2026-04-13 20:16 | -35.63040 | 143.49775 | 30259 ft | 500 kts | 339° |
| 2026-04-13 20:17 | -35.56433 | 143.47110 | 30274 ft | 500 kts | 339° |
| 2026-04-13 20:17 | -35.49826 | 143.44450 | 30274 ft | 500 kts | 339° |
| 2026-04-13 20:18 | -35.43212 | 143.41791 | 30263 ft | 500 kts | 339° |
| 2026-04-13 20:18 | -35.36601 | 143.39138 | 30276 ft | 500 kts | 339° |
| 2026-04-13 20:19 | -35.29983 | 143.36487 | 30273 ft | 501 kts | 339° |
| 2026-04-13 20:19 | -35.23356 | 143.33837 | 30279 ft | 501 kts | 339° |
| 2026-04-13 20:20 | -35.16729 | 143.31191 | 30271 ft | 501 kts | 339° |
| 2026-04-13 20:20 | -35.10130 | 143.28561 | 30279 ft | 501 kts | 339° |
| 2026-04-13 20:21 | -35.03478 | 143.25914 | 30279 ft | 501 kts | 339° |
| 2026-04-13 20:21 | -34.96876 | 143.23214 | 30259 ft | 499 kts | 336° |
| 2026-04-13 20:22 | -34.90649 | 143.19561 | 30281 ft | 496 kts | 330° |
| 2026-04-13 20:22 | -34.84544 | 143.15733 | 30284 ft | 496 kts | 330° |
| 2026-04-13 20:23 | -34.78390 | 143.11925 | 30279 ft | 496 kts | 330° |
| 2026-04-13 20:23 | -34.72222 | 143.08145 | 30281 ft | 496 kts | 330° |
| 2026-04-13 20:24 | -34.66053 | 143.04376 | 30280 ft | 496 kts | 330° |
| 2026-04-13 20:24 | -34.59884 | 143.00611 | 30275 ft | 496 kts | 330° |
| 2026-04-13 20:25 | -34.53721 | 142.96855 | 30283 ft | 496 kts | 330° |
| 2026-04-13 20:25 | -34.47561 | 142.93106 | 30289 ft | 495 kts | 330° |
| 2026-04-13 20:26 | -34.41401 | 142.89364 | 30288 ft | 495 kts | 330° |
| 2026-04-13 20:26 | -34.35242 | 142.85628 | 30285 ft | 495 kts | 330° |
| 2026-04-13 20:27 | -34.29082 | 142.81898 | 30288 ft | 495 kts | 330° |
| 2026-04-13 20:27 | -34.22926 | 142.78177 | 30283 ft | 495 kts | 330° |
| 2026-04-13 20:28 | -34.16765 | 142.74458 | 30277 ft | 494 kts | 330° |
| 2026-04-13 20:28 | -34.10613 | 142.70751 | 30285 ft | 494 kts | 330° |
| 2026-04-13 20:29 | -34.04509 | 142.67079 | 30288 ft | 493 kts | 330° |
| 2026-04-13 20:29 | -33.98322 | 142.63363 | 30288 ft | 493 kts | 330° |
| 2026-04-13 20:30 | -33.92178 | 142.59678 | 30286 ft | 493 kts | 330° |
| 2026-04-13 20:30 | -33.86033 | 142.55997 | 30289 ft | 493 kts | 330° |
| 2026-04-13 20:31 | -33.79933 | 142.52361 | 30281 ft | 493 kts | 330° |
| 2026-04-13 20:31 | -33.73786 | 142.48719 | 30290 ft | 492 kts | 330° |
| 2026-04-13 20:32 | -33.67641 | 142.45084 | 30286 ft | 492 kts | 330° |
| 2026-04-13 20:32 | -33.61502 | 142.41454 | 30281 ft | 491 kts | 330° |
| 2026-04-13 20:33 | -33.55372 | 142.37835 | 30293 ft | 491 kts | 330° |
| 2026-04-13 20:33 | -33.49242 | 142.34220 | 30286 ft | 491 kts | 330° |
| 2026-04-13 20:34 | -33.43111 | 142.30611 | 30288 ft | 491 kts | 330° |
| 2026-04-13 20:34 | -33.36981 | 142.27009 | 30281 ft | 491 kts | 330° |
| 2026-04-13 20:35 | -33.30851 | 142.23412 | 30282 ft | 491 kts | 330° |
| 2026-04-13 20:35 | -33.24717 | 142.19819 | 30288 ft | 491 kts | 330° |
| 2026-04-13 20:36 | -33.18577 | 142.16227 | 30285 ft | 492 kts | 330° |
| 2026-04-13 20:36 | -33.12431 | 142.12638 | 30276 ft | 492 kts | 330° |
| 2026-04-13 20:37 | -33.06283 | 142.09053 | 30288 ft | 492 kts | 330° |
| 2026-04-13 20:37 | -33.00129 | 142.05471 | 30287 ft | 492 kts | 330° |
| 2026-04-13 20:38 | -32.93976 | 142.01894 | 30283 ft | 492 kts | 330° |
| 2026-04-13 20:38 | -32.87826 | 141.98326 | 30291 ft | 492 kts | 330° |
| 2026-04-13 20:39 | -32.81675 | 141.94761 | 30283 ft | 491 kts | 330° |
| 2026-04-13 20:39 | -32.75531 | 141.91207 | 30285 ft | 491 kts | 330° |
| 2026-04-13 20:40 | -32.69388 | 141.87658 | 30291 ft | 491 kts | 330° |
| 2026-04-13 20:40 | -32.63250 | 141.84118 | 30288 ft | 490 kts | 330° |
| 2026-04-13 20:41 | -32.57112 | 141.80583 | 30277 ft | 490 kts | 330° |
| 2026-04-13 20:41 | -32.50986 | 141.77061 | 30287 ft | 489 kts | 330° |
| 2026-04-13 20:42 | -32.44873 | 141.73551 | 30288 ft | 488 kts | 330° |
| 2026-04-13 20:42 | -32.38763 | 141.70048 | 30296 ft | 488 kts | 330° |
| 2026-04-13 20:43 | -32.32658 | 141.66553 | 30291 ft | 487 kts | 330° |
| 2026-04-13 20:43 | -32.26566 | 141.63071 | 30291 ft | 486 kts | 329° |
| 2026-04-13 20:44 | -32.20473 | 141.59594 | 30297 ft | 485 kts | 329° |
| 2026-04-13 20:44 | -32.14395 | 141.56129 | 30299 ft | 485 kts | 329° |
| 2026-04-13 20:45 | -32.08320 | 141.52671 | 30298 ft | 485 kts | 329° |
| 2026-04-13 20:46 | -31.99245 | 141.47433 | 30297 ft | 482 kts | 326° |
| 2026-04-13 20:46 | -31.93618 | 141.43309 | 30300 ft | 479 kts | 323° |
| 2026-04-13 20:47 | -31.87980 | 141.39125 | 30301 ft | 479 kts | 323° |
| 2026-04-13 20:47 | -31.82324 | 141.34969 | 30299 ft | 480 kts | 323° |
| 2026-04-13 20:48 | -31.76660 | 141.30830 | 30290 ft | 479 kts | 323° |
| 2026-04-13 20:48 | -31.70996 | 141.26698 | 30301 ft | 479 kts | 323° |
| 2026-04-13 20:49 | -31.65329 | 141.22567 | 30294 ft | 479 kts | 323° |
| 2026-04-13 20:49 | -31.59665 | 141.18444 | 30298 ft | 479 kts | 323° |
| 2026-04-13 20:50 | -31.53999 | 141.14326 | 30292 ft | 479 kts | 323° |
| 2026-04-13 20:50 | -31.48334 | 141.10214 | 30286 ft | 479 kts | 323° |
| 2026-04-13 20:51 | -31.42670 | 141.06108 | 30281 ft | 479 kts | 324° |
| 2026-04-13 20:51 | -31.37008 | 141.02009 | 30295 ft | 479 kts | 324° |
| 2026-04-13 20:52 | -31.31337 | 140.97920 | 30297 ft | 479 kts | 324° |
| 2026-04-13 20:52 | -31.25651 | 140.93846 | 30292 ft | 480 kts | 324° |
| 2026-04-13 20:53 | -31.19960 | 140.89772 | 30284 ft | 480 kts | 324° |
| 2026-04-13 20:53 | -31.14269 | 140.85702 | 30275 ft | 479 kts | 324° |
| 2026-04-13 20:54 | -31.08593 | 140.81647 | 30278 ft | 478 kts | 324° |
| 2026-04-13 20:54 | -31.02925 | 140.77602 | 30288 ft | 477 kts | 324° |
| 2026-04-13 20:55 | -30.97261 | 140.73566 | 30285 ft | 477 kts | 324° |
| 2026-04-13 20:55 | -30.91598 | 140.69536 | 30282 ft | 477 kts | 324° |
| 2026-04-13 20:56 | -30.85938 | 140.65515 | 30277 ft | 476 kts | 324° |
| 2026-04-13 20:56 | -30.80281 | 140.61500 | 30284 ft | 476 kts | 324° |
| 2026-04-13 20:57 | -30.74617 | 140.57487 | 30283 ft | 477 kts | 324° |
| 2026-04-13 20:57 | -30.68951 | 140.53477 | 30282 ft | 477 kts | 324° |
| 2026-04-13 20:58 | -30.63280 | 140.49470 | 30278 ft | 477 kts | 324° |
| 2026-04-13 20:58 | -30.57607 | 140.45468 | 30268 ft | 477 kts | 324° |
| 2026-04-13 20:59 | -30.51926 | 140.41465 | 30279 ft | 478 kts | 324° |
| 2026-04-13 20:59 | -30.47206 | 140.38143 | 30279 ft | 477 kts | 324° |
| 2026-04-13 21:00 | -30.41528 | 140.34152 | 30275 ft | 477 kts | 324° |
| 2026-04-13 21:00 | -30.35853 | 140.30170 | 30279 ft | 477 kts | 324° |
| 2026-04-13 21:01 | -30.30177 | 140.26191 | 30262 ft | 477 kts | 324° |
| 2026-04-13 21:01 | -30.24508 | 140.22223 | 30278 ft | 476 kts | 324° |
| 2026-04-13 21:02 | -30.18852 | 140.18269 | 30275 ft | 475 kts | 324° |
| 2026-04-13 21:02 | -30.13186 | 140.14314 | 30276 ft | 475 kts | 324° |
| 2026-04-13 21:03 | -30.07534 | 140.10373 | 30277 ft | 474 kts | 325° |
| 2026-04-13 21:03 | -30.01884 | 140.06440 | 30279 ft | 474 kts | 325° |
| 2026-04-13 21:04 | -29.96235 | 140.02512 | 30264 ft | 474 kts | 325° |
| 2026-04-13 21:04 | -29.90582 | 139.98586 | 30277 ft | 474 kts | 325° |
| 2026-04-13 21:05 | -29.84924 | 139.94663 | 30279 ft | 475 kts | 325° |
| 2026-04-13 21:05 | -29.79259 | 139.90739 | 30274 ft | 476 kts | 325° |
| 2026-04-13 21:06 | -29.73582 | 139.86812 | 30275 ft | 476 kts | 325° |
| 2026-04-13 21:06 | -29.67899 | 139.82889 | 30268 ft | 476 kts | 326° |
| 2026-04-13 21:07 | -29.62097 | 139.79190 | 30277 ft | 478 kts | 328° |
| 2026-04-13 21:07 | -29.56215 | 139.75632 | 30269 ft | 478 kts | 328° |
| 2026-04-13 21:08 | -29.50344 | 139.72061 | 30269 ft | 477 kts | 328° |
| 2026-04-13 21:08 | -29.44531 | 139.68488 | 30268 ft | 477 kts | 328° |
| 2026-04-13 21:09 | -29.38693 | 139.64888 | 30264 ft | 476 kts | 328° |
| 2026-04-13 21:09 | -29.32844 | 139.61283 | 30498 ft | 479 kts | 328° |
| 2026-04-13 21:09 | -29.29916 | 139.59481 | 30904 ft | 476 kts | 328° |
| 2026-04-13 21:10 | -29.27014 | 139.57699 | 31373 ft | 471 kts | 327° |
| 2026-04-13 21:10 | -29.24137 | 139.55934 | 31833 ft | 467 kts | 327° |
| 2026-04-13 21:10 | -29.21282 | 139.54183 | 32229 ft | 465 kts | 327° |
| 2026-04-13 21:11 | -29.15555 | 139.50668 | 32276 ft | 467 kts | 327° |
| 2026-04-13 21:11 | -29.09837 | 139.47165 | 32255 ft | 465 kts | 327° |
| 2026-04-13 21:12 | -29.04143 | 139.43682 | 32262 ft | 464 kts | 327° |
| 2026-04-13 21:12 | -28.98461 | 139.40210 | 32268 ft | 463 kts | 327° |